sensor_id;sensor_type;location;lat;lon;timestamp;P1;P2;P0
65360;PMS5003;51958;55.018;73.536;2023-09-19T00:02:39;55.33;43.00;28.00
65360;PMS5003;51958;55.018;73.536;2023-09-19T00:05:41;53.00;42.00;26.67
65360;PMS5003;51958;55.018;73.536;2023-09-19T00:08:45;52.33;42.00;26.33
65360;PMS5003;51958;55.018;73.536;2023-09-19T00:11:46;52.33;41.00;27.00
65360;PMS5003;51958;55.018;73.536;2023-09-19T00:14:49;52.00;40.00;26.00
65360;PMS5003;51958;55.018;73.536;2023-09-19T00:17:51;50.33;40.33;26.00
65360;PMS5003;51958;55.018;73.536;2023-09-19T00:20:59;52.00;41.67;27.00
65360;PMS5003;51958;55.018;73.536;2023-09-19T00:24:00;52.67;42.00;27.00
65360;PMS5003;51958;55.018;73.536;2023-09-19T00:27:01;54.00;42.00;27.00
65360;PMS5003;51958;55.018;73.536;2023-09-19T00:30:02;51.00;40.00;27.00
65360;PMS5003;51958;55.018;73.536;2023-09-19T00:33:05;53.00;41.00;27.00
65360;PMS5003;51958;55.018;73.536;2023-09-19T00:36:08;52.67;42.00;27.00
65360;PMS5003;51958;55.018;73.536;2023-09-19T00:39:09;52.00;41.00;26.00
65360;PMS5003;51958;55.018;73.536;2023-09-19T00:42:17;52.00;41.00;26.00
65360;PMS5003;51958;55.018;73.536;2023-09-19T00:45:20;53.00;41.00;26.33
65360;PMS5003;51958;55.018;73.536;2023-09-19T00:48:21;53.67;41.00;26.33
65360;PMS5003;51958;55.018;73.536;2023-09-19T00:51:23;54.33;42.00;26.33
65360;PMS5003;51958;55.018;73.536;2023-09-19T00:54:27;54.33;42.00;27.33
65360;PMS5003;51958;55.018;73.536;2023-09-19T00:57:29;58.00;43.67;28.00
65360;PMS5003;51958;55.018;73.536;2023-09-19T01:00:30;59.67;48.33;30.33
65360;PMS5003;51958;55.018;73.536;2023-09-19T01:03:33;59.33;47.67;31.00
65360;PMS5003;51958;55.018;73.536;2023-09-19T01:06:49;60.00;47.33;32.00
65360;PMS5003;51958;55.018;73.536;2023-09-19T01:09:54;59.00;47.00;29.00
65360;PMS5003;51958;55.018;73.536;2023-09-19T01:13:04;57.33;45.67;29.00
65360;PMS5003;51958;55.018;73.536;2023-09-19T01:16:08;57.67;46.00;29.00
65360;PMS5003;51958;55.018;73.536;2023-09-19T01:22:26;62.00;51.33;33.33
65360;PMS5003;51958;55.018;73.536;2023-09-19T01:31:56;61.33;49.33;32.00
65360;PMS5003;51958;55.018;73.536;2023-09-19T01:34:58;60.33;49.33;31.00
65360;PMS5003;51958;55.018;73.536;2023-09-19T01:38:07;61.00;50.33;31.33
65360;PMS5003;51958;55.018;73.536;2023-09-19T01:41:12;62.00;51.33;32.33
65360;PMS5003;51958;55.018;73.536;2023-09-19T01:44:31;61.00;50.00;31.00
65360;PMS5003;51958;55.018;73.536;2023-09-19T01:47:33;56.00;44.00;28.00
65360;PMS5003;51958;55.018;73.536;2023-09-19T01:50:44;47.33;37.33;24.33
65360;PMS5003;51958;55.018;73.536;2023-09-19T01:54:03;42.00;34.00;23.00
65360;PMS5003;51958;55.018;73.536;2023-09-19T01:57:09;40.00;31.33;21.33
65360;PMS5003;51958;55.018;73.536;2023-09-19T02:00:15;35.00;30.00;21.00
65360;PMS5003;51958;55.018;73.536;2023-09-19T02:03:17;35.33;29.00;21.00
65360;PMS5003;51958;55.018;73.536;2023-09-19T02:06:18;37.33;31.00;20.00
65360;PMS5003;51958;55.018;73.536;2023-09-19T02:09:19;36.00;30.33;20.00
65360;PMS5003;51958;55.018;73.536;2023-09-19T02:12:20;34.00;29.33;18.00
65360;PMS5003;51958;55.018;73.536;2023-09-19T02:15:22;36.00;30.00;19.00
65360;PMS5003;51958;55.018;73.536;2023-09-19T02:18:23;40.25;33.25;21.25
65360;PMS5003;51958;55.018;73.536;2023-09-19T02:21:24;44.67;38.33;24.33
65360;PMS5003;51958;55.018;73.536;2023-09-19T02:24:25;53.25;42.25;27.25
65360;PMS5003;51958;55.018;73.536;2023-09-19T02:27:27;56.00;44.50;29.00
65360;PMS5003;51958;55.018;73.536;2023-09-19T02:30:31;58.33;45.33;30.67
65360;PMS5003;51958;55.018;73.536;2023-09-19T02:33:32;60.50;47.00;31.00
65360;PMS5003;51958;55.018;73.536;2023-09-19T02:36:33;60.50;47.50;30.50
65360;PMS5003;51958;55.018;73.536;2023-09-19T02:39:34;61.00;47.33;31.33
65360;PMS5003;51958;55.018;73.536;2023-09-19T02:42:36;59.50;47.00;30.00
65360;PMS5003;51958;55.018;73.536;2023-09-19T02:45:37;56.00;45.00;30.00
65360;PMS5003;51958;55.018;73.536;2023-09-19T02:48:38;54.00;44.00;29.00
65360;PMS5003;51958;55.018;73.536;2023-09-19T02:51:39;54.75;45.00;29.25
65360;PMS5003;51958;55.018;73.536;2023-09-19T02:54:40;50.50;42.00;28.00
65360;PMS5003;51958;55.018;73.536;2023-09-19T02:57:49;51.00;41.75;28.00
65360;PMS5003;51958;55.018;73.536;2023-09-19T03:00:50;52.25;43.00;28.00
65360;PMS5003;51958;55.018;73.536;2023-09-19T03:04:07;56.50;44.50;27.25
65360;PMS5003;51958;55.018;73.536;2023-09-19T03:07:10;59.00;47.25;29.00
65360;PMS5003;51958;55.018;73.536;2023-09-19T03:10:12;62.00;48.00;31.00
65360;PMS5003;51958;55.018;73.536;2023-09-19T03:13:14;63.25;49.50;32.25
65360;PMS5003;51958;55.018;73.536;2023-09-19T03:16:16;65.00;52.00;33.75
65360;PMS5003;51958;55.018;73.536;2023-09-19T03:19:17;65.00;52.25;33.50
65360;PMS5003;51958;55.018;73.536;2023-09-19T03:22:19;65.00;50.50;33.00
65360;PMS5003;51958;55.018;73.536;2023-09-19T03:25:21;62.00;49.00;32.00
65360;PMS5003;51958;55.018;73.536;2023-09-19T03:28:28;63.00;50.00;33.00
65360;PMS5003;51958;55.018;73.536;2023-09-19T03:31:33;61.00;50.00;32.00
65360;PMS5003;51958;55.018;73.536;2023-09-19T03:34:34;59.00;48.00;31.00
65360;PMS5003;51958;55.018;73.536;2023-09-19T03:37:37;59.50;48.00;31.00
65360;PMS5003;51958;55.018;73.536;2023-09-19T03:40:38;56.67;45.00;29.00
65360;PMS5003;51958;55.018;73.536;2023-09-19T03:43:39;54.25;44.00;29.50
65360;PMS5003;51958;55.018;73.536;2023-09-19T03:46:40;55.00;44.50;29.75
65360;PMS5003;51958;55.018;73.536;2023-09-19T03:49:41;59.00;45.00;30.00
65360;PMS5003;51958;55.018;73.536;2023-09-19T03:52:43;57.00;45.00;30.00
65360;PMS5003;51958;55.018;73.536;2023-09-19T03:55:44;56.00;45.00;30.00
65360;PMS5003;51958;55.018;73.536;2023-09-19T03:58:46;56.50;45.50;30.00
65360;PMS5003;51958;55.018;73.536;2023-09-19T04:01:47;58.00;45.00;30.00
65360;PMS5003;51958;55.018;73.536;2023-09-19T04:04:48;54.75;44.00;29.00
65360;PMS5003;51958;55.018;73.536;2023-09-19T04:07:50;56.50;45.50;29.25
65360;PMS5003;51958;55.018;73.536;2023-09-19T04:10:51;55.00;45.00;29.00
65360;PMS5003;51958;55.018;73.536;2023-09-19T04:13:53;52.00;42.00;28.00
65360;PMS5003;51958;55.018;73.536;2023-09-19T04:16:54;56.00;45.00;30.00
65360;PMS5003;51958;55.018;73.536;2023-09-19T04:19:55;62.67;49.33;32.67
65360;PMS5003;51958;55.018;73.536;2023-09-19T04:22:56;64.25;50.00;34.00
65360;PMS5003;51958;55.018;73.536;2023-09-19T04:25:57;62.00;49.00;33.00
65360;PMS5003;51958;55.018;73.536;2023-09-19T04:29:00;60.00;48.00;32.00
65360;PMS5003;51958;55.018;73.536;2023-09-19T04:32:01;61.00;47.00;31.00
65360;PMS5003;51958;55.018;73.536;2023-09-19T04:35:07;54.00;44.00;29.25
65360;PMS5003;51958;55.018;73.536;2023-09-19T04:38:09;49.00;41.00;27.00
65360;PMS5003;51958;55.018;73.536;2023-09-19T04:41:10;45.75;38.00;25.00
65360;PMS5003;51958;55.018;73.536;2023-09-19T04:44:11;34.00;31.00;21.00
65360;PMS5003;51958;55.018;73.536;2023-09-19T04:47:12;30.00;27.75;19.00
65360;PMS5003;51958;55.018;73.536;2023-09-19T04:50:13;30.00;26.00;19.00
65360;PMS5003;51958;55.018;73.536;2023-09-19T04:53:14;30.00;25.00;18.00
65360;PMS5003;51958;55.018;73.536;2023-09-19T04:56:15;26.25;24.00;16.25
65360;PMS5003;51958;55.018;73.536;2023-09-19T04:59:16;28.00;24.50;16.50
65360;PMS5003;51958;55.018;73.536;2023-09-19T05:02:17;34.75;29.00;17.00
65360;PMS5003;51958;55.018;73.536;2023-09-19T05:05:18;30.50;29.00;18.50
65360;PMS5003;51958;55.018;73.536;2023-09-19T05:08:20;30.50;27.00;18.00
65360;PMS5003;51958;55.018;73.536;2023-09-19T05:11:22;30.00;28.00;18.00
65360;PMS5003;51958;55.018;73.536;2023-09-19T05:14:24;32.25;28.00;18.00
65360;PMS5003;51958;55.018;73.536;2023-09-19T05:17:25;29.75;27.00;16.00
65360;PMS5003;51958;55.018;73.536;2023-09-19T05:20:26;30.00;25.00;17.00
65360;PMS5003;51958;55.018;73.536;2023-09-19T05:23:33;26.25;22.00;15.00
65360;PMS5003;51958;55.018;73.536;2023-09-19T05:26:34;23.50;20.00;14.00
65360;PMS5003;51958;55.018;73.536;2023-09-19T05:29:35;21.33;19.33;10.33
65360;PMS5003;51958;55.018;73.536;2023-09-19T05:32:36;18.00;17.00;7.00
65360;PMS5003;51958;55.018;73.536;2023-09-19T05:35:37;17.00;17.00;5.75
65360;PMS5003;51958;55.018;73.536;2023-09-19T05:38:40;22.50;21.75;10.00
65360;PMS5003;51958;55.018;73.536;2023-09-19T05:41:42;24.67;20.67;9.00
65360;PMS5003;51958;55.018;73.536;2023-09-19T05:44:44;19.75;17.50;7.00
65360;PMS5003;51958;55.018;73.536;2023-09-19T05:47:54;21.75;19.75;10.50
65360;PMS5003;51958;55.018;73.536;2023-09-19T05:51:05;31.25;28.00;16.25
65360;PMS5003;51958;55.018;73.536;2023-09-19T05:54:12;25.25;24.00;15.75
65360;PMS5003;51958;55.018;73.536;2023-09-19T05:57:15;17.25;17.25;9.00
65360;PMS5003;51958;55.018;73.536;2023-09-19T06:00:17;13.25;11.50;4.00
65360;PMS5003;51958;55.018;73.536;2023-09-19T06:03:18;12.50;10.00;3.75
65360;PMS5003;51958;55.018;73.536;2023-09-19T06:06:23;17.50;15.00;8.50
65360;PMS5003;51958;55.018;73.536;2023-09-19T06:09:25;15.00;14.00;5.00
65360;PMS5003;51958;55.018;73.536;2023-09-19T06:12:29;8.25;7.25;3.50
65360;PMS5003;51958;55.018;73.536;2023-09-19T06:15:31;6.50;6.00;2.75
65360;PMS5003;51958;55.018;73.536;2023-09-19T06:18:34;9.00;8.75;3.00
65360;PMS5003;51958;55.018;73.536;2023-09-19T06:21:38;9.00;9.00;5.50
65360;PMS5003;51958;55.018;73.536;2023-09-19T06:24:40;11.00;10.00;5.00
65360;PMS5003;51958;55.018;73.536;2023-09-19T06:27:42;10.00;8.00;4.00
65360;PMS5003;51958;55.018;73.536;2023-09-19T06:30:44;12.00;9.33;6.00
65360;PMS5003;51958;55.018;73.536;2023-09-19T06:33:46;12.00;10.00;6.00
65360;PMS5003;51958;55.018;73.536;2023-09-19T06:36:47;14.50;10.50;6.50
65360;PMS5003;51958;55.018;73.536;2023-09-19T06:39:48;13.25;9.00;5.00
65360;PMS5003;51958;55.018;73.536;2023-09-19T06:42:50;11.50;8.00;5.00
65360;PMS5003;51958;55.018;73.536;2023-09-19T06:45:51;10.25;9.00;5.00
65360;PMS5003;51958;55.018;73.536;2023-09-19T06:48:55;8.75;8.00;5.00
65360;PMS5003;51958;55.018;73.536;2023-09-19T06:51:57;8.00;8.00;4.00
65360;PMS5003;51958;55.018;73.536;2023-09-19T06:55:01;8.00;7.00;4.50
65360;PMS5003;51958;55.018;73.536;2023-09-19T06:58:04;7.75;7.75;4.00
65360;PMS5003;51958;55.018;73.536;2023-09-19T07:01:07;9.00;8.25;3.00
65360;PMS5003;51958;55.018;73.536;2023-09-19T07:04:08;8.00;8.00;3.00
65360;PMS5003;51958;55.018;73.536;2023-09-19T07:07:09;6.00;6.00;3.00
65360;PMS5003;51958;55.018;73.536;2023-09-19T07:10:10;10.00;8.50;5.00
65360;PMS5003;51958;55.018;73.536;2023-09-19T07:13:14;9.00;8.00;5.00
65360;PMS5003;51958;55.018;73.536;2023-09-19T07:16:17;7.00;7.00;3.00
65360;PMS5003;51958;55.018;73.536;2023-09-19T07:19:28;7.00;7.00;2.00
65360;PMS5003;51958;55.018;73.536;2023-09-19T07:22:30;7.00;6.00;2.00
65360;PMS5003;51958;55.018;73.536;2023-09-19T07:25:31;8.00;7.00;3.50
65360;PMS5003;51958;55.018;73.536;2023-09-19T07:28:32;9.00;8.00;4.00
65360;PMS5003;51958;55.018;73.536;2023-09-19T07:31:35;7.00;7.00;5.00
65360;PMS5003;51958;55.018;73.536;2023-09-19T07:34:36;9.50;7.00;5.00
65360;PMS5003;51958;55.018;73.536;2023-09-19T07:37:39;7.00;7.00;3.00
65360;PMS5003;51958;55.018;73.536;2023-09-19T07:40:42;8.00;7.00;3.50
65360;PMS5003;51958;55.018;73.536;2023-09-19T07:43:44;8.00;6.00;2.00
65360;PMS5003;51958;55.018;73.536;2023-09-19T07:46:46;9.00;9.00;3.00
65360;PMS5003;51958;55.018;73.536;2023-09-19T07:49:47;10.00;9.00;4.00
65360;PMS5003;51958;55.018;73.536;2023-09-19T07:52:49;8.50;8.50;3.00
65360;PMS5003;51958;55.018;73.536;2023-09-19T07:56:01;10.50;10.00;4.00
65360;PMS5003;51958;55.018;73.536;2023-09-19T07:59:05;12.00;10.00;5.00
65360;PMS5003;51958;55.018;73.536;2023-09-19T08:02:10;12.00;10.67;5.67
65360;PMS5003;51958;55.018;73.536;2023-09-19T08:05:18;12.75;11.00;4.00
65360;PMS5003;51958;55.018;73.536;2023-09-19T08:08:20;13.00;12.00;4.75
65360;PMS5003;51958;55.018;73.536;2023-09-19T08:11:23;14.00;12.00;5.25
65360;PMS5003;51958;55.018;73.536;2023-09-19T08:14:36;12.00;11.00;5.00
65360;PMS5003;51958;55.018;73.536;2023-09-19T08:17:42;12.00;10.25;4.00
65360;PMS5003;51958;55.018;73.536;2023-09-19T08:20:50;13.00;10.25;5.00
65360;PMS5003;51958;55.018;73.536;2023-09-19T08:23:57;12.50;10.50;4.75
65360;PMS5003;51958;55.018;73.536;2023-09-19T08:27:01;11.75;9.25;4.50
65360;PMS5003;51958;55.018;73.536;2023-09-19T08:30:09;11.00;9.75;5.00
65360;PMS5003;51958;55.018;73.536;2023-09-19T08:33:17;9.00;8.67;5.00
65360;PMS5003;51958;55.018;73.536;2023-09-19T08:36:31;9.75;9.00;5.00
65360;PMS5003;51958;55.018;73.536;2023-09-19T08:39:32;9.00;8.00;3.00
65360;PMS5003;51958;55.018;73.536;2023-09-19T08:42:51;11.25;10.75;5.00
65360;PMS5003;51958;55.018;73.536;2023-09-19T08:45:58;11.00;8.50;5.00
65360;PMS5003;51958;55.018;73.536;2023-09-19T08:49:04;13.00;9.00;6.00
65360;PMS5003;51958;55.018;73.536;2023-09-19T08:52:10;14.00;11.67;6.33
65360;PMS5003;51958;55.018;73.536;2023-09-19T08:55:29;15.75;13.75;7.00
65360;PMS5003;51958;55.018;73.536;2023-09-19T08:58:34;13.00;12.00;6.00
65360;PMS5003;51958;55.018;73.536;2023-09-19T09:01:43;15.00;14.00;6.00
65360;PMS5003;51958;55.018;73.536;2023-09-19T09:04:45;17.25;16.00;6.50
65360;PMS5003;51958;55.018;73.536;2023-09-19T09:07:46;17.00;16.00;6.00
65360;PMS5003;51958;55.018;73.536;2023-09-19T09:10:52;17.50;15.25;7.00
65360;PMS5003;51958;55.018;73.536;2023-09-19T09:14:00;26.00;23.67;14.00
65360;PMS5003;51958;55.018;73.536;2023-09-19T09:17:10;35.00;28.75;17.75
65360;PMS5003;51958;55.018;73.536;2023-09-19T09:20:11;29.00;27.00;17.00
65360;PMS5003;51958;55.018;73.536;2023-09-19T09:23:12;24.00;23.00;17.00
65360;PMS5003;51958;55.018;73.536;2023-09-19T09:26:15;21.75;20.00;13.75
65360;PMS5003;51958;55.018;73.536;2023-09-19T09:29:35;15.00;12.00;5.75
65360;PMS5003;51958;55.018;73.536;2023-09-19T09:32:40;10.75;8.25;5.00
65360;PMS5003;51958;55.018;73.536;2023-09-19T09:35:53;9.00;9.00;5.00
65360;PMS5003;51958;55.018;73.536;2023-09-19T09:38:56;8.00;8.00;5.00
65360;PMS5003;51958;55.018;73.536;2023-09-19T09:41:58;10.00;9.00;5.00
65360;PMS5003;51958;55.018;73.536;2023-09-19T09:45:14;10.25;9.00;5.00
65360;PMS5003;51958;55.018;73.536;2023-09-19T09:48:17;8.00;7.50;3.00
65360;PMS5003;51958;55.018;73.536;2023-09-19T09:51:34;8.00;7.50;3.00
65360;PMS5003;51958;55.018;73.536;2023-09-19T09:54:38;8.67;8.00;3.00
65360;PMS5003;51958;55.018;73.536;2023-09-19T09:58:16;9.00;9.00;3.75
65360;PMS5003;51958;55.018;73.536;2023-09-19T10:01:18;8.50;7.00;4.00
65360;PMS5003;51958;55.018;73.536;2023-09-19T10:04:27;7.75;6.50;4.00
65360;PMS5003;51958;55.018;73.536;2023-09-19T10:07:38;9.00;5.00;4.00
65360;PMS5003;51958;55.018;73.536;2023-09-19T10:10:41;8.75;7.50;4.00
65360;PMS5003;51958;55.018;73.536;2023-09-19T10:13:42;8.00;7.00;5.00
65360;PMS5003;51958;55.018;73.536;2023-09-19T10:16:47;7.00;7.00;4.00
65360;PMS5003;51958;55.018;73.536;2023-09-19T10:22:52;7.00;7.00;3.00
65360;PMS5003;51958;55.018;73.536;2023-09-19T10:25:58;8.00;8.00;5.00
65360;PMS5003;51958;55.018;73.536;2023-09-19T10:29:03;9.00;9.00;5.00
65360;PMS5003;51958;55.018;73.536;2023-09-19T10:32:13;9.00;9.00;5.00
65360;PMS5003;51958;55.018;73.536;2023-09-19T10:35:20;9.50;8.50;5.00
65360;PMS5003;51958;55.018;73.536;2023-09-19T10:38:25;8.00;8.00;5.00
65360;PMS5003;51958;55.018;73.536;2023-09-19T10:41:27;8.75;8.75;5.00
65360;PMS5003;51958;55.018;73.536;2023-09-19T10:44:30;10.00;8.00;6.00
65360;PMS5003;51958;55.018;73.536;2023-09-19T10:47:37;9.75;9.00;5.50
65360;PMS5003;51958;55.018;73.536;2023-09-19T10:50:46;14.00;11.75;7.00
65360;PMS5003;51958;55.018;73.536;2023-09-19T10:53:55;15.67;12.67;6.33
65360;PMS5003;51958;55.018;73.536;2023-09-19T10:57:04;17.75;14.00;6.75
65360;PMS5003;51958;55.018;73.536;2023-09-19T11:00:11;19.25;15.25;7.00
65360;PMS5003;51958;55.018;73.536;2023-09-19T11:03:38;20.00;18.00;8.33
65360;PMS5003;51958;55.018;73.536;2023-09-19T11:06:58;19.00;18.00;9.00
65360;PMS5003;51958;55.018;73.536;2023-09-19T11:10:00;18.25;18.00;9.50
65360;PMS5003;51958;55.018;73.536;2023-09-19T11:20:18;17.75;15.00;7.00
65360;PMS5003;51958;55.018;73.536;2023-09-19T11:23:31;18.00;16.00;7.00
65360;PMS5003;51958;55.018;73.536;2023-09-19T11:26:42;16.75;15.25;8.00
65360;PMS5003;51958;55.018;73.536;2023-09-19T11:29:50;18.25;16.25;9.00
65360;PMS5003;51958;55.018;73.536;2023-09-19T11:36:34;18.75;15.00;7.00
65360;PMS5003;51958;55.018;73.536;2023-09-19T11:39:37;19.00;15.25;7.00
65360;PMS5003;51958;55.018;73.536;2023-09-19T11:49:18;16.50;10.00;7.00
65360;PMS5003;51958;55.018;73.536;2023-09-19T11:52:24;14.00;10.00;5.00
65360;PMS5003;51958;55.018;73.536;2023-09-19T11:55:29;12.00;10.00;4.00
65360;PMS5003;51958;55.018;73.536;2023-09-19T11:58:33;11.00;8.00;5.00
65360;PMS5003;51958;55.018;73.536;2023-09-19T12:01:36;11.25;10.50;5.00
65360;PMS5003;51958;55.018;73.536;2023-09-19T12:04:44;12.00;12.00;5.33
65360;PMS5003;51958;55.018;73.536;2023-09-19T12:07:50;14.25;14.25;7.25
65360;PMS5003;51958;55.018;73.536;2023-09-19T12:10:51;15.50;15.25;6.50
65360;PMS5003;51958;55.018;73.536;2023-09-19T12:14:21;17.00;16.00;8.00
65360;PMS5003;51958;55.018;73.536;2023-09-19T12:17:23;17.25;16.25;8.00
65360;PMS5003;51958;55.018;73.536;2023-09-19T12:20:42;19.00;18.00;8.00
65360;PMS5003;51958;55.018;73.536;2023-09-19T12:23:59;23.33;19.67;10.33
65360;PMS5003;51958;55.018;73.536;2023-09-19T12:27:06;23.00;22.00;12.25
65360;PMS5003;51958;55.018;73.536;2023-09-19T12:30:12;24.75;23.00;13.00
65360;PMS5003;51958;55.018;73.536;2023-09-19T12:33:19;24.00;23.00;13.50
65360;PMS5003;51958;55.018;73.536;2023-09-19T12:36:26;24.00;23.00;12.00
65360;PMS5003;51958;55.018;73.536;2023-09-19T12:39:31;30.50;28.75;18.00
65360;PMS5003;51958;55.018;73.536;2023-09-19T12:42:32;36.50;32.00;21.50
65360;PMS5003;51958;55.018;73.536;2023-09-19T12:45:33;32.00;29.00;21.00
65360;PMS5003;51958;55.018;73.536;2023-09-19T12:48:35;44.50;37.25;24.75
65360;PMS5003;51958;55.018;73.536;2023-09-19T12:51:38;60.75;48.00;31.50
65360;PMS5003;51958;55.018;73.536;2023-09-19T12:54:40;53.75;43.00;27.75
65360;PMS5003;51958;55.018;73.536;2023-09-19T12:57:41;44.25;37.00;24.00
65360;PMS5003;51958;55.018;73.536;2023-09-19T13:00:44;39.00;32.00;21.50
65360;PMS5003;51958;55.018;73.536;2023-09-19T13:03:45;21.00;17.50;12.00
65360;PMS5003;51958;55.018;73.536;2023-09-19T13:06:46;28.00;26.00;18.00
65360;PMS5003;51958;55.018;73.536;2023-09-19T13:10:02;27.00;24.00;18.00
65360;PMS5003;51958;55.018;73.536;2023-09-19T13:13:22;29.50;25.00;17.00
65360;PMS5003;51958;55.018;73.536;2023-09-19T13:16:55;39.00;31.00;19.67
65360;PMS5003;51958;55.018;73.536;2023-09-19T13:19:56;37.00;32.00;21.00
65360;PMS5003;51958;55.018;73.536;2023-09-19T13:22:58;39.50;34.50;22.00
65360;PMS5003;51958;55.018;73.536;2023-09-19T13:26:01;39.00;34.00;22.00
65360;PMS5003;51958;55.018;73.536;2023-09-19T13:29:02;43.50;35.00;22.00
65360;PMS5003;51958;55.018;73.536;2023-09-19T13:32:03;44.75;36.75;23.25
65360;PMS5003;51958;55.018;73.536;2023-09-19T13:35:05;56.33;44.67;29.00
65360;PMS5003;51958;55.018;73.536;2023-09-19T13:38:07;67.50;54.25;34.50
65360;PMS5003;51958;55.018;73.536;2023-09-19T13:41:12;59.25;47.50;31.75
65360;PMS5003;51958;55.018;73.536;2023-09-19T13:44:14;56.00;45.00;29.00
65360;PMS5003;51958;55.018;73.536;2023-09-19T13:47:15;56.00;45.00;30.00
65360;PMS5003;51958;55.018;73.536;2023-09-19T13:50:17;60.25;46.00;30.25
65360;PMS5003;51958;55.018;73.536;2023-09-19T13:53:32;60.00;47.00;31.00
65360;PMS5003;51958;55.018;73.536;2023-09-19T13:56:35;59.67;47.33;32.00
65360;PMS5003;51958;55.018;73.536;2023-09-19T13:59:40;61.00;48.50;32.00
65360;PMS5003;51958;55.018;73.536;2023-09-19T14:02:42;60.50;49.00;32.00
65360;PMS5003;51958;55.018;73.536;2023-09-19T14:06:00;59.67;47.67;31.00
65360;PMS5003;51958;55.018;73.536;2023-09-19T14:09:21;62.25;49.00;31.50
65360;PMS5003;51958;55.018;73.536;2023-09-19T14:12:21;62.00;49.00;32.00
65360;PMS5003;51958;55.018;73.536;2023-09-19T14:15:25;62.67;49.00;33.00
65360;PMS5003;51958;55.018;73.536;2023-09-19T14:18:30;62.00;49.00;32.00
65360;PMS5003;51958;55.018;73.536;2023-09-19T14:21:31;60.00;47.00;31.00
65360;PMS5003;51958;55.018;73.536;2023-09-19T14:24:34;59.00;46.00;31.00
65360;PMS5003;51958;55.018;73.536;2023-09-19T14:27:36;57.25;45.50;31.00
65360;PMS5003;51958;55.018;73.536;2023-09-19T14:30:37;60.75;48.00;32.00
65360;PMS5003;51958;55.018;73.536;2023-09-19T14:33:39;61.00;48.00;31.00
65360;PMS5003;51958;55.018;73.536;2023-09-19T14:36:40;61.67;48.67;32.33
65360;PMS5003;51958;55.018;73.536;2023-09-19T14:39:41;62.00;49.00;31.00
65360;PMS5003;51958;55.018;73.536;2023-09-19T14:42:45;59.25;47.00;31.00
65360;PMS5003;51958;55.018;73.536;2023-09-19T14:45:46;59.25;47.50;31.00
65360;PMS5003;51958;55.018;73.536;2023-09-19T14:48:47;62.00;49.00;32.00
65360;PMS5003;51958;55.018;73.536;2023-09-19T14:51:49;61.00;49.00;32.00
65360;PMS5003;51958;55.018;73.536;2023-09-19T14:54:50;62.00;49.00;32.00
65360;PMS5003;51958;55.018;73.536;2023-09-19T14:57:51;61.75;48.25;32.00
65360;PMS5003;51958;55.018;73.536;2023-09-19T15:00:53;60.00;47.50;32.00
65360;PMS5003;51958;55.018;73.536;2023-09-19T15:03:55;60.50;48.00;31.00
65360;PMS5003;51958;55.018;73.536;2023-09-19T15:06:56;61.33;48.00;32.33
65360;PMS5003;51958;55.018;73.536;2023-09-19T15:10:06;65.25;51.75;34.00
65360;PMS5003;51958;55.018;73.536;2023-09-19T15:13:19;68.00;55.00;36.75
65360;PMS5003;51958;55.018;73.536;2023-09-19T15:16:30;68.33;56.33;37.33
65360;PMS5003;51958;55.018;73.536;2023-09-19T15:19:33;70.50;58.25;38.50
65360;PMS5003;51958;55.018;73.536;2023-09-19T15:22:46;69.50;57.50;36.50
65360;PMS5003;51958;55.018;73.536;2023-09-19T15:25:55;68.00;54.00;36.33
65360;PMS5003;51958;55.018;73.536;2023-09-19T15:28:58;70.50;60.00;40.50
65360;PMS5003;51958;55.018;73.536;2023-09-19T15:32:03;67.50;56.00;38.50
65360;PMS5003;51958;55.018;73.536;2023-09-19T15:35:11;73.00;66.00;45.00
65360;PMS5003;51958;55.018;73.536;2023-09-19T15:38:26;77.50;73.00;48.00
65360;PMS5003;51958;55.018;73.536;2023-09-19T15:41:30;87.75;79.75;52.25
65360;PMS5003;51958;55.018;73.536;2023-09-19T15:44:37;95.25;90.25;58.75
65360;PMS5003;51958;55.018;73.536;2023-09-19T15:47:42;105.33;96.67;63.33
65360;PMS5003;51958;55.018;73.536;2023-09-19T15:50:48;123.75;111.75;72.00
65360;PMS5003;51958;55.018;73.536;2023-09-19T15:53:50;148.00;132.00;83.00
65360;PMS5003;51958;55.018;73.536;2023-09-19T15:56:56;153.50;139.50;86.75
65360;PMS5003;51958;55.018;73.536;2023-09-19T16:00:09;158.33;141.67;88.00
65360;PMS5003;51958;55.018;73.536;2023-09-19T16:03:35;156.33;137.33;84.33
65360;PMS5003;51958;55.018;73.536;2023-09-19T16:06:50;154.00;134.33;84.67
65360;PMS5003;51958;55.018;73.536;2023-09-19T16:10:08;147.00;130.33;82.00
65360;PMS5003;51958;55.018;73.536;2023-09-19T16:13:11;149.00;132.67;83.67
65360;PMS5003;51958;55.018;73.536;2023-09-19T16:16:25;147.33;132.67;83.00
65360;PMS5003;51958;55.018;73.536;2023-09-19T16:19:47;145.33;131.33;84.00
65360;PMS5003;51958;55.018;73.536;2023-09-19T16:23:08;140.33;121.33;79.00
65360;PMS5003;51958;55.018;73.536;2023-09-19T16:26:09;136.25;121.00;78.25
65360;PMS5003;51958;55.018;73.536;2023-09-19T16:29:10;132.00;115.00;74.33
65360;PMS5003;51958;55.018;73.536;2023-09-19T16:32:12;125.00;112.33;73.00
65360;PMS5003;51958;55.018;73.536;2023-09-19T16:35:13;119.00;107.00;69.33
65360;PMS5003;51958;55.018;73.536;2023-09-19T16:38:14;113.33;102.00;65.00
65360;PMS5003;51958;55.018;73.536;2023-09-19T16:41:15;113.00;102.00;65.00
65360;PMS5003;51958;55.018;73.536;2023-09-19T16:44:17;112.33;100.33;64.33
65360;PMS5003;51958;55.018;73.536;2023-09-19T16:47:24;114.00;102.67;66.33
65360;PMS5003;51958;55.018;73.536;2023-09-19T16:50:31;106.33;99.67;64.00
65360;PMS5003;51958;55.018;73.536;2023-09-19T16:53:34;107.50;95.00;60.50
65360;PMS5003;51958;55.018;73.536;2023-09-19T16:56:57;103.67;92.67;59.33
65360;PMS5003;51958;55.018;73.536;2023-09-19T17:00:03;113.75;100.00;63.50
65360;PMS5003;51958;55.018;73.536;2023-09-19T17:03:09;124.67;111.33;71.00
65360;PMS5003;51958;55.018;73.536;2023-09-19T17:06:12;120.00;106.50;67.00
65360;PMS5003;51958;55.018;73.536;2023-09-19T17:09:15;115.25;103.75;65.75
65360;PMS5003;51958;55.018;73.536;2023-09-19T17:12:16;116.00;104.75;67.50
65360;PMS5003;51958;55.018;73.536;2023-09-19T17:15:17;117.33;105.33;67.67
65360;PMS5003;51958;55.018;73.536;2023-09-19T17:18:20;112.33;102.00;65.00
65360;PMS5003;51958;55.018;73.536;2023-09-19T17:21:22;109.50;97.00;60.00
65360;PMS5003;51958;55.018;73.536;2023-09-19T17:24:24;100.00;89.33;57.00
65360;PMS5003;51958;55.018;73.536;2023-09-19T17:27:25;92.33;84.67;54.67
65360;PMS5003;51958;55.018;73.536;2023-09-19T17:30:28;88.75;81.50;53.00
65360;PMS5003;51958;55.018;73.536;2023-09-19T17:33:30;88.50;82.75;51.75
65360;PMS5003;51958;55.018;73.536;2023-09-19T17:36:31;87.00;78.00;50.00
65360;PMS5003;51958;55.018;73.536;2023-09-19T17:39:34;85.00;77.00;47.50